sensor_id;sensor_type;location;lat;lon;timestamp;P1;durP1;ratioP1;P2;durP2;ratioP2
14306;SDS011;7237;49.500;11.400;2022-11-20T00:00:18;15.27;;;11.40;;
14306;SDS011;7237;49.500;11.400;2022-11-20T00:02:45;14.50;;;12.20;;
14306;SDS011;7237;49.500;11.400;2022-11-20T00:05:13;15.93;;;12.60;;
14306;SDS011;7237;49.500;11.400;2022-11-20T00:07:40;15.73;;;11.90;;
14306;SDS011;7237;49.500;11.400;2022-11-20T00:10:07;13.00;;;11.60;;
14306;SDS011;7237;49.500;11.400;2022-11-20T00:12:34;14.03;;;11.70;;
14306;SDS011;7237;49.500;11.400;2022-11-20T00:15:01;14.50;;;12.23;;
14306;SDS011;7237;49.500;11.400;2022-11-20T00:17:28;14.47;;;12.27;;
14306;SDS011;7237;49.500;11.400;2022-11-20T00:19:55;14.67;;;12.40;;
14306;SDS011;7237;49.500;11.400;2022-11-20T00:22:23;15.17;;;12.17;;
14306;SDS011;7237;49.500;11.400;2022-11-20T00:24:50;14.43;;;11.93;;
14306;SDS011;7237;49.500;11.400;2022-11-20T00:27:16;14.97;;;11.60;;
14306;SDS011;7237;49.500;11.400;2022-11-20T00:29:43;14.17;;;11.77;;
14306;SDS011;7237;49.500;11.400;2022-11-20T00:32:10;14.00;;;11.63;;
14306;SDS011;7237;49.500;11.400;2022-11-20T00:34:36;13.70;;;11.83;;
14306;SDS011;7237;49.500;11.400;2022-11-20T00:37:03;15.87;;;12.20;;
14306;SDS011;7237;49.500;11.400;2022-11-20T00:39:31;13.20;;;11.20;;
14306;SDS011;7237;49.500;11.400;2022-11-20T00:41:58;14.60;;;12.03;;
14306;SDS011;7237;49.500;11.400;2022-11-20T00:44:25;14.87;;;12.27;;
14306;SDS011;7237;49.500;11.400;2022-11-20T00:46:52;16.00;;;12.30;;
14306;SDS011;7237;49.500;11.400;2022-11-20T00:49:18;15.73;;;12.50;;
14306;SDS011;7237;49.500;11.400;2022-11-20T00:51:45;14.57;;;11.70;;
14306;SDS011;7237;49.500;11.400;2022-11-20T00:54:12;13.90;;;11.53;;
14306;SDS011;7237;49.500;11.400;2022-11-20T00:56:40;14.13;;;12.17;;
14306;SDS011;7237;49.500;11.400;2022-11-20T00:59:08;14.20;;;11.73;;
14306;SDS011;7237;49.500;11.400;2022-11-20T01:01:36;13.43;;;11.50;;
14306;SDS011;7237;49.500;11.400;2022-11-20T01:04:03;15.03;;;12.17;;
14306;SDS011;7237;49.500;11.400;2022-11-20T01:06:31;14.17;;;12.33;;
14306;SDS011;7237;49.500;11.400;2022-11-20T01:09:00;14.47;;;12.07;;
14306;SDS011;7237;49.500;11.400;2022-11-20T01:11:30;15.83;;;12.90;;
14306;SDS011;7237;49.500;11.400;2022-11-20T01:13:59;14.80;;;12.00;;
14306;SDS011;7237;49.500;11.400;2022-11-20T01:16:29;15.13;;;11.97;;
14306;SDS011;7237;49.500;11.400;2022-11-20T01:18:57;14.40;;;12.33;;
14306;SDS011;7237;49.500;11.400;2022-11-20T01:21:27;14.27;;;11.60;;
14306;SDS011;7237;49.500;11.400;2022-11-20T01:23:55;13.93;;;11.50;;
14306;SDS011;7237;49.500;11.400;2022-11-20T01:26:24;13.60;;;11.80;;
14306;SDS011;7237;49.500;11.400;2022-11-20T01:28:53;14.20;;;11.53;;
14306;SDS011;7237;49.500;11.400;2022-11-20T01:31:22;15.17;;;11.93;;
14306;SDS011;7237;49.500;11.400;2022-11-20T01:33:51;14.90;;;12.23;;
14306;SDS011;7237;49.500;11.400;2022-11-20T01:36:19;15.13;;;12.20;;
14306;SDS011;7237;49.500;11.400;2022-11-20T01:38:50;12.83;;;10.80;;
14306;SDS011;7237;49.500;11.400;2022-11-20T01:41:17;14.87;;;12.13;;
14306;SDS011;7237;49.500;11.400;2022-11-20T01:43:58;13.80;;;11.67;;
14306;SDS011;7237;49.500;11.400;2022-11-20T01:46:27;13.97;;;11.53;;
14306;SDS011;7237;49.500;11.400;2022-11-20T01:48:54;15.10;;;12.00;;
14306;SDS011;7237;49.500;11.400;2022-11-20T01:51:27;15.40;;;12.27;;
14306;SDS011;7237;49.500;11.400;2022-11-20T01:54:00;13.63;;;12.03;;
14306;SDS011;7237;49.500;11.400;2022-11-20T01:56:30;15.07;;;11.57;;
14306;SDS011;7237;49.500;11.400;2022-11-20T01:59:01;14.17;;;12.03;;
14306;SDS011;7237;49.500;11.400;2022-11-20T02:01:31;14.57;;;11.43;;
14306;SDS011;7237;49.500;11.400;2022-11-20T02:03:58;14.00;;;11.57;;
14306;SDS011;7237;49.500;11.400;2022-11-20T02:06:27;14.27;;;11.47;;
14306;SDS011;7237;49.500;11.400;2022-11-20T02:08:57;13.80;;;12.13;;
14306;SDS011;7237;49.500;11.400;2022-11-20T02:11:24;15.53;;;12.07;;
14306;SDS011;7237;49.500;11.400;2022-11-20T02:13:51;14.13;;;11.97;;
14306;SDS011;7237;49.500;11.400;2022-11-20T02:16:21;14.67;;;11.57;;
14306;SDS011;7237;49.500;11.400;2022-11-20T02:18:52;14.90;;;11.73;;
14306;SDS011;7237;49.500;11.400;2022-11-20T02:21:32;14.27;;;11.67;;
14306;SDS011;7237;49.500;11.400;2022-11-20T02:24:05;14.57;;;11.77;;
14306;SDS011;7237;49.500;11.400;2022-11-20T02:26:37;14.90;;;12.33;;
14306;SDS011;7237;49.500;11.400;2022-11-20T02:29:07;14.20;;;11.27;;
14306;SDS011;7237;49.500;11.400;2022-11-20T02:31:37;12.80;;;11.10;;
14306;SDS011;7237;49.500;11.400;2022-11-20T02:34:06;13.13;;;11.43;;
14306;SDS011;7237;49.500;11.400;2022-11-20T02:36:34;13.90;;;11.23;;
14306;SDS011;7237;49.500;11.400;2022-11-20T02:39:02;16.40;;;12.40;;
14306;SDS011;7237;49.500;11.400;2022-11-20T02:41:32;13.00;;;11.50;;
14306;SDS011;7237;49.500;11.400;2022-11-20T02:44:00;14.53;;;12.10;;
14306;SDS011;7237;49.500;11.400;2022-11-20T02:46:27;13.43;;;11.33;;
14306;SDS011;7237;49.500;11.400;2022-11-20T02:48:54;13.50;;;11.93;;
14306;SDS011;7237;49.500;11.400;2022-11-20T02:51:22;16.17;;;12.87;;
14306;SDS011;7237;49.500;11.400;2022-11-20T02:53:49;15.10;;;11.80;;
14306;SDS011;7237;49.500;11.400;2022-11-20T02:56:17;12.50;;;11.00;;
14306;SDS011;7237;49.500;11.400;2022-11-20T02:58:44;14.73;;;11.53;;
14306;SDS011;7237;49.500;11.400;2022-11-20T03:01:11;15.70;;;11.90;;
14306;SDS011;7237;49.500;11.400;2022-11-20T03:03:38;13.63;;;11.23;;
14306;SDS011;7237;49.500;11.400;2022-11-20T03:06:05;13.37;;;11.63;;
14306;SDS011;7237;49.500;11.400;2022-11-20T03:08:32;14.03;;;12.00;;
14306;SDS011;7237;49.500;11.400;2022-11-20T03:11:01;14.00;;;10.70;;
14306;SDS011;7237;49.500;11.400;2022-11-20T03:13:30;15.03;;;11.80;;
14306;SDS011;7237;49.500;11.400;2022-11-20T03:15:57;15.00;;;12.73;;
14306;SDS011;7237;49.500;11.400;2022-11-20T03:18:24;15.37;;;11.77;;
14306;SDS011;7237;49.500;11.400;2022-11-20T03:20:56;14.40;;;12.17;;
14306;SDS011;7237;49.500;11.400;2022-11-20T03:23:23;14.97;;;12.63;;
14306;SDS011;7237;49.500;11.400;2022-11-20T03:25:50;14.47;;;11.73;;
14306;SDS011;7237;49.500;11.400;2022-11-20T03:28:17;15.13;;;12.10;;
14306;SDS011;7237;49.500;11.400;2022-11-20T03:30:45;14.50;;;11.83;;
14306;SDS011;7237;49.500;11.400;2022-11-20T03:33:12;17.63;;;12.43;;
14306;SDS011;7237;49.500;11.400;2022-11-20T03:35:39;15.53;;;12.70;;
14306;SDS011;7237;49.500;11.400;2022-11-20T03:38:06;14.47;;;11.77;;
14306;SDS011;7237;49.500;11.400;2022-11-20T03:40:33;16.50;;;13.30;;
14306;SDS011;7237;49.500;11.400;2022-11-20T03:43:00;17.33;;;12.70;;
14306;SDS011;7237;49.500;11.400;2022-11-20T03:45:27;14.80;;;11.70;;
14306;SDS011;7237;49.500;11.400;2022-11-20T03:47:55;13.90;;;12.07;;
14306;SDS011;7237;49.500;11.400;2022-11-20T03:50:22;14.93;;;11.63;;
14306;SDS011;7237;49.500;11.400;2022-11-20T03:52:48;14.93;;;11.87;;
14306;SDS011;7237;49.500;11.400;2022-11-20T03:55:15;15.40;;;12.07;;
14306;SDS011;7237;49.500;11.400;2022-11-20T03:57:42;14.37;;;11.83;;
14306;SDS011;7237;49.500;11.400;2022-11-20T04:00:09;15.53;;;12.83;;
14306;SDS011;7237;49.500;11.400;2022-11-20T04:02:37;14.50;;;11.70;;
14306;SDS011;7237;49.500;11.400;2022-11-20T04:05:05;14.30;;;11.83;;
14306;SDS011;7237;49.500;11.400;2022-11-20T04:07:33;14.57;;;11.97;;
14306;SDS011;7237;49.500;11.400;2022-11-20T04:10:00;15.80;;;11.83;;
14306;SDS011;7237;49.500;11.400;2022-11-20T04:12:27;14.83;;;12.43;;
14306;SDS011;7237;49.500;11.400;2022-11-20T04:14:58;13.87;;;12.37;;
14306;SDS011;7237;49.500;11.400;2022-11-20T04:17:24;14.80;;;12.07;;
14306;SDS011;7237;49.500;11.400;2022-11-20T04:19:51;15.97;;;12.53;;
14306;SDS011;7237;49.500;11.400;2022-11-20T04:22:19;15.67;;;13.23;;
14306;SDS011;7237;49.500;11.400;2022-11-20T04:24:46;14.60;;;12.23;;
14306;SDS011;7237;49.500;11.400;2022-11-20T04:27:13;15.20;;;11.83;;
14306;SDS011;7237;49.500;11.400;2022-11-20T04:29:40;15.73;;;12.70;;
14306;SDS011;7237;49.500;11.400;2022-11-20T04:32:06;14.70;;;12.10;;
14306;SDS011;7237;49.500;11.400;2022-11-20T04:34:33;14.93;;;12.53;;
14306;SDS011;7237;49.500;11.400;2022-11-20T04:37:00;15.17;;;12.30;;
14306;SDS011;7237;49.500;11.400;2022-11-20T04:39:28;14.80;;;12.20;;
14306;SDS011;7237;49.500;11.400;2022-11-20T04:41:55;16.37;;;13.60;;
14306;SDS011;7237;49.500;11.400;2022-11-20T04:44:35;19.63;;;14.07;;
14306;SDS011;7237;49.500;11.400;2022-11-20T04:47:02;18.23;;;13.00;;
14306;SDS011;7237;49.500;11.400;2022-11-20T04:49:29;18.77;;;14.30;;
14306;SDS011;7237;49.500;11.400;2022-11-20T04:51:56;18.23;;;13.87;;
14306;SDS011;7237;49.500;11.400;2022-11-20T04:54:23;14.93;;;13.33;;
14306;SDS011;7237;49.500;11.400;2022-11-20T04:56:51;17.10;;;12.97;;
14306;SDS011;7237;49.500;11.400;2022-11-20T04:59:18;17.60;;;13.90;;
14306;SDS011;7237;49.500;11.400;2022-11-20T05:01:45;18.23;;;13.13;;
14306;SDS011;7237;49.500;11.400;2022-11-20T05:04:12;17.47;;;13.23;;
14306;SDS011;7237;49.500;11.400;2022-11-20T05:06:38;22.10;;;14.73;;
14306;SDS011;7237;49.500;11.400;2022-11-20T05:09:05;19.13;;;14.03;;
14306;SDS011;7237;49.500;11.400;2022-11-20T05:11:32;19.03;;;14.67;;
14306;SDS011;7237;49.500;11.400;2022-11-20T05:14:00;19.13;;;14.50;;
14306;SDS011;7237;49.500;11.400;2022-11-20T05:16:27;20.17;;;14.10;;
14306;SDS011;7237;49.500;11.400;2022-11-20T05:18:55;17.80;;;13.57;;
14306;SDS011;7237;49.500;11.400;2022-11-20T05:21:22;17.47;;;14.13;;
14306;SDS011;7237;49.500;11.400;2022-11-20T05:23:49;16.60;;;13.00;;
14306;SDS011;7237;49.500;11.400;2022-11-20T05:26:16;17.57;;;13.67;;
14306;SDS011;7237;49.500;11.400;2022-11-20T05:28:44;18.43;;;13.67;;
14306;SDS011;7237;49.500;11.400;2022-11-20T05:31:14;17.47;;;13.23;;
14306;SDS011;7237;49.500;11.400;2022-11-20T05:33:42;18.90;;;14.07;;
14306;SDS011;7237;49.500;11.400;2022-11-20T05:36:10;16.80;;;13.37;;
14306;SDS011;7237;49.500;11.400;2022-11-20T05:38:38;17.67;;;14.03;;
14306;SDS011;7237;49.500;11.400;2022-11-20T05:41:06;16.83;;;13.33;;
14306;SDS011;7237;49.500;11.400;2022-11-20T05:43:34;17.60;;;13.57;;
14306;SDS011;7237;49.500;11.400;2022-11-20T05:46:02;16.53;;;13.97;;
14306;SDS011;7237;49.500;11.400;2022-11-20T05:48:30;18.20;;;13.87;;
14306;SDS011;7237;49.500;11.400;2022-11-20T05:50:58;17.23;;;13.63;;
14306;SDS011;7237;49.500;11.400;2022-11-20T05:53:25;17.57;;;13.57;;
14306;SDS011;7237;49.500;11.400;2022-11-20T05:55:58;18.90;;;14.53;;
14306;SDS011;7237;49.500;11.400;2022-11-20T05:58:26;15.63;;;12.83;;
14306;SDS011;7237;49.500;11.400;2022-11-20T06:00:53;17.47;;;13.40;;
14306;SDS011;7237;49.500;11.400;2022-11-20T06:03:20;17.33;;;13.83;;
14306;SDS011;7237;49.500;11.400;2022-11-20T06:05:48;16.43;;;13.27;;
14306;SDS011;7237;49.500;11.400;2022-11-20T06:08:15;18.70;;;13.70;;
14306;SDS011;7237;49.500;11.400;2022-11-20T06:10:42;17.00;;;13.00;;
14306;SDS011;7237;49.500;11.400;2022-11-20T06:13:09;18.97;;;13.57;;
14306;SDS011;7237;49.500;11.400;2022-11-20T06:15:36;17.63;;;14.23;;
14306;SDS011;7237;49.500;11.400;2022-11-20T06:18:02;19.70;;;14.80;;
14306;SDS011;7237;49.500;11.400;2022-11-20T06:20:29;17.37;;;13.73;;
14306;SDS011;7237;49.500;11.400;2022-11-20T06:22:57;19.07;;;13.50;;
14306;SDS011;7237;49.500;11.400;2022-11-20T06:25:24;19.80;;;14.13;;
14306;SDS011;7237;49.500;11.400;2022-11-20T06:27:51;18.43;;;12.80;;
14306;SDS011;7237;49.500;11.400;2022-11-20T06:30:18;20.23;;;14.87;;
14306;SDS011;7237;49.500;11.400;2022-11-20T06:32:45;18.70;;;14.40;;
14306;SDS011;7237;49.500;11.400;2022-11-20T06:35:12;17.37;;;13.23;;
14306;SDS011;7237;49.500;11.400;2022-11-20T06:37:38;17.67;;;12.67;;
14306;SDS011;7237;49.500;11.400;2022-11-20T06:40:07;17.60;;;13.57;;
14306;SDS011;7237;49.500;11.400;2022-11-20T06:42:35;17.03;;;13.53;;
14306;SDS011;7237;49.500;11.400;2022-11-20T06:45:02;18.70;;;13.47;;
14306;SDS011;7237;49.500;11.400;2022-11-20T06:47:29;18.00;;;13.33;;
14306;SDS011;7237;49.500;11.400;2022-11-20T06:49:56;16.87;;;13.10;;
14306;SDS011;7237;49.500;11.400;2022-11-20T06:52:23;17.23;;;13.67;;
14306;SDS011;7237;49.500;11.400;2022-11-20T06:54:49;19.97;;;15.43;;
14306;SDS011;7237;49.500;11.400;2022-11-20T06:57:17;17.30;;;14.20;;
14306;SDS011;7237;49.500;11.400;2022-11-20T06:59:44;19.00;;;14.53;;
14306;SDS011;7237;49.500;11.400;2022-11-20T07:02:11;17.27;;;13.87;;
14306;SDS011;7237;49.500;11.400;2022-11-20T07:04:38;18.57;;;14.73;;
14306;SDS011;7237;49.500;11.400;2022-11-20T07:07:05;17.13;;;13.90;;
14306;SDS011;7237;49.500;11.400;2022-11-20T07:09:32;18.37;;;13.77;;
14306;SDS011;7237;49.500;11.400;2022-11-20T07:11:59;17.70;;;13.90;;
14306;SDS011;7237;49.500;11.400;2022-11-20T07:14:27;21.07;;;15.13;;
14306;SDS011;7237;49.500;11.400;2022-11-20T07:16:54;17.73;;;13.47;;
14306;SDS011;7237;49.500;11.400;2022-11-20T07:19:21;15.07;;;12.93;;
14306;SDS011;7237;49.500;11.400;2022-11-20T07:21:48;17.40;;;12.90;;
14306;SDS011;7237;49.500;11.400;2022-11-20T07:24:14;17.50;;;14.10;;
14306;SDS011;7237;49.500;11.400;2022-11-20T07:26:41;18.37;;;13.47;;
14306;SDS011;7237;49.500;11.400;2022-11-20T07:29:08;16.43;;;12.70;;
14306;SDS011;7237;49.500;11.400;2022-11-20T07:31:36;15.37;;;12.40;;
14306;SDS011;7237;49.500;11.400;2022-11-20T07:34:03;15.17;;;12.53;;
14306;SDS011;7237;49.500;11.400;2022-11-20T07:36:29;14.97;;;12.97;;
14306;SDS011;7237;49.500;11.400;2022-11-20T07:38:56;18.30;;;13.87;;
14306;SDS011;7237;49.500;11.400;2022-11-20T07:41:23;18.87;;;14.57;;
14306;SDS011;7237;49.500;11.400;2022-11-20T07:43:50;18.83;;;14.97;;
14306;SDS011;7237;49.500;11.400;2022-11-20T07:46:17;16.63;;;13.83;;
14306;SDS011;7237;49.500;11.400;2022-11-20T07:48:45;16.57;;;13.53;;
14306;SDS011;7237;49.500;11.400;2022-11-20T07:51:12;16.77;;;13.27;;
14306;SDS011;7237;49.500;11.400;2022-11-20T07:53:39;16.40;;;13.13;;
14306;SDS011;7237;49.500;11.400;2022-11-20T07:56:06;17.90;;;13.20;;
14306;SDS011;7237;49.500;11.400;2022-11-20T07:58:33;17.60;;;13.70;;
14306;SDS011;7237;49.500;11.400;2022-11-20T08:01:02;14.93;;;13.00;;
14306;SDS011;7237;49.500;11.400;2022-11-20T08:03:30;16.07;;;12.57;;
14306;SDS011;7237;49.500;11.400;2022-11-20T08:05:59;15.73;;;12.60;;
14306;SDS011;7237;49.500;11.400;2022-11-20T08:08:26;17.73;;;12.20;;
14306;SDS011;7237;49.500;11.400;2022-11-20T08:10:53;15.93;;;13.07;;
14306;SDS011;7237;49.500;11.400;2022-11-20T08:13:41;19.30;;;13.90;;
14306;SDS011;7237;49.500;11.400;2022-11-20T08:16:25;17.70;;;13.37;;
14306;SDS011;7237;49.500;11.400;2022-11-20T08:18:51;17.67;;;13.27;;
14306;SDS011;7237;49.500;11.400;2022-11-20T08:21:20;17.10;;;13.93;;
14306;SDS011;7237;49.500;11.400;2022-11-20T08:23:46;21.67;;;13.87;;
14306;SDS011;7237;49.500;11.400;2022-11-20T08:26:13;16.40;;;13.77;;
14306;SDS011;7237;49.500;11.400;2022-11-20T08:28:40;17.63;;;13.27;;
14306;SDS011;7237;49.500;11.400;2022-11-20T08:31:06;18.27;;;13.83;;
14306;SDS011;7237;49.500;11.400;2022-11-20T08:33:34;14.47;;;12.20;;
14306;SDS011;7237;49.500;11.400;2022-11-20T08:36:02;15.70;;;12.43;;
14306;SDS011;7237;49.500;11.400;2022-11-20T08:38:31;14.80;;;11.93;;
14306;SDS011;7237;49.500;11.400;2022-11-20T08:40:58;15.83;;;12.83;;
14306;SDS011;7237;49.500;11.400;2022-11-20T08:43:43;17.17;;;13.93;;
14306;SDS011;7237;49.500;11.400;2022-11-20T08:46:10;18.30;;;13.13;;
14306;SDS011;7237;49.500;11.400;2022-11-20T08:48:36;16.90;;;13.17;;
14306;SDS011;7237;49.500;11.400;2022-11-20T08:51:03;16.03;;;12.40;;
14306;SDS011;7237;49.500;11.400;2022-11-20T08:53:32;17.37;;;14.00;;
14306;SDS011;7237;49.500;11.400;2022-11-20T08:55:59;15.73;;;12.60;;
14306;SDS011;7237;49.500;11.400;2022-11-20T08:58:25;15.40;;;12.77;;
14306;SDS011;7237;49.500;11.400;2022-11-20T09:00:52;15.73;;;13.00;;
14306;SDS011;7237;49.500;11.400;2022-11-20T09:03:20;18.27;;;12.50;;
14306;SDS011;7237;49.500;11.400;2022-11-20T09:05:46;16.30;;;12.80;;
14306;SDS011;7237;49.500;11.400;2022-11-20T09:08:13;14.90;;;11.77;;
14306;SDS011;7237;49.500;11.400;2022-11-20T09:10:41;16.37;;;13.27;;
14306;SDS011;7237;49.500;11.400;2022-11-20T09:13:08;16.23;;;11.87;;
14306;SDS011;7237;49.500;11.400;2022-11-20T09:15:35;18.50;;;13.63;;
14306;SDS011;7237;49.500;11.400;2022-11-20T09:18:02;16.90;;;13.30;;
14306;SDS011;7237;49.500;11.400;2022-11-20T09:20:30;17.27;;;13.37;;
14306;SDS011;7237;49.500;11.400;2022-11-20T09:22:57;17.03;;;13.07;;
14306;SDS011;7237;49.500;11.400;2022-11-20T09:25:24;15.17;;;11.80;;
14306;SDS011;7237;49.500;11.400;2022-11-20T09:27:55;16.17;;;12.97;;
14306;SDS011;7237;49.500;11.400;2022-11-20T09:30:22;16.03;;;11.87;;
14306;SDS011;7237;49.500;11.400;2022-11-20T09:32:49;16.17;;;13.17;;
14306;SDS011;7237;49.500;11.400;2022-11-20T09:35:16;15.97;;;13.23;;
14306;SDS011;7237;49.500;11.400;2022-11-20T09:37:43;15.07;;;12.63;;
14306;SDS011;7237;49.500;11.400;2022-11-20T09:40:15;14.57;;;11.77;;
14306;SDS011;7237;49.500;11.400;2022-11-20T09:42:47;13.50;;;11.67;;
14306;SDS011;7237;49.500;11.400;2022-11-20T09:45:24;12.97;;;10.70;;
14306;SDS011;7237;49.500;11.400;2022-11-20T09:48:09;13.87;;;10.73;;
14306;SDS011;7237;49.500;11.400;2022-11-20T09:50:55;13.47;;;11.47;;
14306;SDS011;7237;49.500;11.400;2022-11-20T09:53:30;13.63;;;10.87;;
14306;SDS011;7237;49.500;11.400;2022-11-20T09:56:03;12.33;;;10.10;;
14306;SDS011;7237;49.500;11.400;2022-11-20T09:58:32;12.87;;;10.70;;
14306;SDS011;7237;49.500;11.400;2022-11-20T10:01:05;13.90;;;10.97;;
14306;SDS011;7237;49.500;11.400;2022-11-20T10:03:38;11.53;;;10.13;;
14306;SDS011;7237;49.500;11.400;2022-11-20T10:06:12;11.13;;;9.73;;
14306;SDS011;7237;49.500;11.400;2022-11-20T10:08:44;12.77;;;10.33;;
14306;SDS011;7237;49.500;11.400;2022-11-20T10:11:18;12.73;;;10.00;;
14306;SDS011;7237;49.500;11.400;2022-11-20T10:13:56;14.43;;;10.13;;
14306;SDS011;7237;49.500;11.400;2022-11-20T10:16:35;13.03;;;10.67;;
14306;SDS011;7237;49.500;11.400;2022-11-20T10:19:11;13.53;;;10.77;;
14306;SDS011;7237;49.500;11.400;2022-11-20T10:21:52;13.10;;;10.37;;
14306;SDS011;7237;49.500;11.400;2022-11-20T10:24:42;13.73;;;11.47;;
14306;SDS011;7237;49.500;11.400;2022-11-20T10:30:07;13.40;;;11.13;;
14306;SDS011;7237;49.500;11.400;2022-11-20T10:32:37;14.87;;;11.97;;
14306;SDS011;7237;49.500;11.400;2022-11-20T10:35:09;14.93;;;12.03;;
14306;SDS011;7237;49.500;11.400;2022-11-20T10:37:44;14.70;;;12.17;;
14306;SDS011;7237;49.500;11.400;2022-11-20T10:40:18;15.53;;;12.60;;
14306;SDS011;7237;49.500;11.400;2022-11-20T10:42:50;13.53;;;11.20;;
14306;SDS011;7237;49.500;11.400;2022-11-20T10:45:25;16.80;;;13.27;;
14306;SDS011;7237;49.500;11.400;2022-11-20T10:48:09;18.27;;;12.87;;
14306;SDS011;7237;49.500;11.400;2022-11-20T10:50:45;16.23;;;13.40;;
14306;SDS011;7237;49.500;11.400;2022-11-20T10:53:22;14.03;;;11.83;;
14306;SDS011;7237;49.500;11.400;2022-11-20T10:56:05;14.33;;;12.33;;
14306;SDS011;7237;49.500;11.400;2022-11-20T10:58:37;15.90;;;12.17;;
14306;SDS011;7237;49.500;11.400;2022-11-20T11:01:13;16.07;;;12.27;;
14306;SDS011;7237;49.500;11.400;2022-11-20T11:03:42;15.17;;;12.53;;
14306;SDS011;7237;49.500;11.400;2022-11-20T11:06:11;13.17;;;11.43;;
14306;SDS011;7237;49.500;11.400;2022-11-20T11:08:43;14.07;;;11.43;;
14306;SDS011;7237;49.500;11.400;2022-11-20T11:11:17;13.77;;;11.60;;
14306;SDS011;7237;49.500;11.400;2022-11-20T11:13:47;13.90;;;11.33;;
14306;SDS011;7237;49.500;11.400;2022-11-20T11:16:20;11.93;;;10.30;;
14306;SDS011;7237;49.500;11.400;2022-11-20T11:18:49;13.43;;;10.60;;
14306;SDS011;7237;49.500;11.400;2022-11-20T11:21:21;13.73;;;10.30;;
14306;SDS011;7237;49.500;11.400;2022-11-20T11:23:57;11.77;;;10.10;;
14306;SDS011;7237;49.500;11.400;2022-11-20T11:26:25;12.80;;;10.80;;
14306;SDS011;7237;49.500;11.400;2022-11-20T11:28:53;11.23;;;9.63;;
14306;SDS011;7237;49.500;11.400;2022-11-20T11:31:24;11.83;;;10.13;;
14306;SDS011;7237;49.500;11.400;2022-11-20T11:34:02;11.13;;;9.73;;
14306;SDS011;7237;49.500;11.400;2022-11-20T11:36:31;11.87;;;9.83;;
14306;SDS011;7237;49.500;11.400;2022-11-20T11:38:59;14.20;;;11.63;;
14306;SDS011;7237;49.500;11.400;2022-11-20T11:41:30;13.43;;;11.17;;
14306;SDS011;7237;49.500;11.400;2022-11-20T11:44:00;13.30;;;9.80;;
14306;SDS011;7237;49.500;11.400;2022-11-20T11:46:56;12.43;;;10.70;;
14306;SDS011;7237;49.500;11.400;2022-11-20T11:49:25;31.80;;;25.43;;
14306;SDS011;7237;49.500;11.400;2022-11-20T11:51:56;11.30;;;10.20;;
14306;SDS011;7237;49.500;11.400;2022-11-20T11:54:29;13.27;;;11.07;;
14306;SDS011;7237;49.500;11.400;2022-11-20T11:57:01;8.40;;;7.00;;
14306;SDS011;7237;49.500;11.400;2022-11-20T11:59:33;9.40;;;7.93;;
14306;SDS011;7237;49.500;11.400;2022-11-20T12:02:13;10.20;;;9.10;;
14306;SDS011;7237;49.500;11.400;2022-11-20T12:04:52;9.07;;;8.17;;
14306;SDS011;7237;49.500;11.400;2022-11-20T12:07:26;7.83;;;6.97;;
14306;SDS011;7237;49.500;11.400;2022-11-20T12:10:02;12.30;;;9.67;;
14306;SDS011;7237;49.500;11.400;2022-11-20T12:12:31;10.60;;;9.50;;
14306;SDS011;7237;49.500;11.400;2022-11-20T12:15:02;7.53;;;6.47;;
14306;SDS011;7237;49.500;11.400;2022-11-20T12:17:34;6.63;;;5.13;;
14306;SDS011;7237;49.500;11.400;2022-11-20T12:20:02;6.27;;;5.07;;
14306;SDS011;7237;49.500;11.400;2022-11-20T12:22:30;5.47;;;4.97;;
14306;SDS011;7237;49.500;11.400;2022-11-20T12:25:06;5.57;;;4.67;;
14306;SDS011;7237;49.500;11.400;2022-11-20T12:30:48;5.07;;;4.57;;
14306;SDS011;7237;49.500;11.400;2022-11-20T12:33:40;4.93;;;4.27;;
14306;SDS011;7237;49.500;11.400;2022-11-20T12:36:32;6.13;;;5.53;;
14306;SDS011;7237;49.500;11.400;2022-11-20T12:39:19;5.80;;;5.13;;
14306;SDS011;7237;49.500;11.400;2022-11-20T12:42:11;6.20;;;5.60;;
14306;SDS011;7237;49.500;11.400;2022-11-20T12:45:22;6.77;;;5.97;;
14306;SDS011;7237;49.500;11.400;2022-11-20T12:48:08;8.13;;;7.30;;
14306;SDS011;7237;49.500;11.400;2022-11-20T12:51:04;7.70;;;6.93;;
14306;SDS011;7237;49.500;11.400;2022-11-20T12:53:48;6.07;;;5.20;;
14306;SDS011;7237;49.500;11.400;2022-11-20T12:56:27;3.80;;;3.50;;
14306;SDS011;7237;49.500;11.400;2022-11-20T12:59:07;4.50;;;4.10;;
14306;SDS011;7237;49.500;11.400;2022-11-20T13:01:49;4.73;;;4.33;;
14306;SDS011;7237;49.500;11.400;2022-11-20T13:04:23;14.53;;;12.40;;
14306;SDS011;7237;49.500;11.400;2022-11-20T13:07:13;13.10;;;11.73;;
14306;SDS011;7237;49.500;11.400;2022-11-20T13:09:44;10.90;;;9.70;;
14306;SDS011;7237;49.500;11.400;2022-11-20T13:12:13;8.60;;;7.03;;
14306;SDS011;7237;49.500;11.400;2022-11-20T13:14:45;7.33;;;6.17;;
14306;SDS011;7237;49.500;11.400;2022-11-20T13:17:19;7.77;;;5.80;;
14306;SDS011;7237;49.500;11.400;2022-11-20T13:19:52;4.80;;;4.30;;
14306;SDS011;7237;49.500;11.400;2022-11-20T13:22:24;4.47;;;4.07;;
14306;SDS011;7237;49.500;11.400;2022-11-20T13:24:53;5.10;;;4.60;;
14306;SDS011;7237;49.500;11.400;2022-11-20T13:27:20;4.33;;;3.93;;
14306;SDS011;7237;49.500;11.400;2022-11-20T13:30:02;4.83;;;3.80;;
14306;SDS011;7237;49.500;11.400;2022-11-20T13:32:47;4.40;;;3.87;;
14306;SDS011;7237;49.500;11.400;2022-11-20T13:35:25;4.43;;;4.03;;
14306;SDS011;7237;49.500;11.400;2022-11-20T13:38:01;4.30;;;3.90;;
14306;SDS011;7237;49.500;11.400;2022-11-20T13:40:32;4.00;;;3.70;;
14306;SDS011;7237;49.500;11.400;2022-11-20T13:43:16;4.23;;;3.83;;
14306;SDS011;7237;49.500;11.400;2022-11-20T13:45:54;4.00;;;3.50;;
14306;SDS011;7237;49.500;11.400;2022-11-20T13:48:23;3.77;;;3.30;;
14306;SDS011;7237;49.500;11.400;2022-11-20T13:50:57;3.43;;;3.13;;
14306;SDS011;7237;49.500;11.400;2022-11-20T13:53:33;3.47;;;3.03;;
14306;SDS011;7237;49.500;11.400;2022-11-20T13:56:14;3.20;;;2.90;;
14306;SDS011;7237;49.500;11.400;2022-11-20T13:58:51;3.43;;;3.13;;
14306;SDS011;7237;49.500;11.400;2022-11-20T14:01:25;4.80;;;4.00;;
14306;SDS011;7237;49.500;11.400;2022-11-20T14:03:56;6.13;;;5.10;;
14306;SDS011;7237;49.500;11.400;2022-11-20T14:06:25;4.73;;;4.27;;
14306;SDS011;7237;49.500;11.400;2022-11-20T14:08:54;6.77;;;4.50;;
14306;SDS011;7237;49.500;11.400;2022-11-20T14:11:23;4.90;;;4.07;;
14306;SDS011;7237;49.500;11.400;2022-11-20T14:14:01;5.13;;;4.63;;
14306;SDS011;7237;49.500;11.400;2022-11-20T14:16:30;9.03;;;8.13;;
14306;SDS011;7237;49.500;11.400;2022-11-20T14:22:06;9.03;;;8.13;;
14306;SDS011;7237;49.500;11.400;2022-11-20T14:24:41;9.80;;;8.47;;
14306;SDS011;7237;49.500;11.400;2022-11-20T14:27:13;6.33;;;5.73;;
14306;SDS011;7237;49.500;11.400;2022-11-20T14:29:41;5.23;;;4.73;;
14306;SDS011;7237;49.500;11.400;2022-11-20T14:32:10;5.47;;;4.60;;
14306;SDS011;7237;49.500;11.400;2022-11-20T14:34:38;5.20;;;4.70;;
14306;SDS011;7237;49.500;11.400;2022-11-20T14:37:10;5.23;;;4.73;;
14306;SDS011;7237;49.500;11.400;2022-11-20T14:39:40;7.37;;;4.40;;
14306;SDS011;7237;49.500;11.400;2022-11-20T14:42:16;4.73;;;4.20;;
14306;SDS011;7237;49.500;11.400;2022-11-20T14:44:45;5.23;;;4.37;;
14306;SDS011;7237;49.500;11.400;2022-11-20T14:47:14;5.00;;;4.50;;
14306;SDS011;7237;49.500;11.400;2022-11-20T14:49:45;6.03;;;4.87;;
14306;SDS011;7237;49.500;11.400;2022-11-20T14:52:13;5.87;;;4.53;;